createdAt,value
2019-03-27T00:01:02.202Z,6.4
2019-03-27T00:02:04.927Z,6.4
2019-03-27T00:03:07.025Z,6.4
2019-03-27T00:04:09.333Z,6.4
2019-03-27T00:05:11.382Z,6.3
2019-03-27T00:06:13.695Z,6.3
2019-03-27T00:07:16.114Z,6.4
2019-03-27T00:08:18.157Z,6.4
2019-03-27T00:09:20.185Z,6.4
2019-03-27T00:10:22.208Z,6.4
2019-03-27T00:11:24.239Z,6.4
2019-03-27T00:12:26.578Z,6.4
2019-03-27T00:13:28.614Z,6.4
2019-03-27T00:14:30.665Z,6.4
2019-03-27T00:15:33.474Z,6.4
2019-03-27T00:16:35.597Z,6.3
2019-03-27T00:17:37.659Z,6.4
2019-03-27T00:18:39.686Z,6.4
2019-03-27T00:19:41.713Z,6.4
2019-03-27T00:20:43.840Z,6.3
2019-03-27T00:21:45.867Z,6.4
2019-03-27T00:22:48.203Z,6.4
2019-03-27T00:23:50.526Z,6.4
2019-03-27T00:24:52.575Z,6.3
2019-03-27T00:25:54.879Z,6.3
2019-03-27T00:26:56.925Z,6.3
2019-03-27T00:27:59.235Z,6.3
2019-03-27T00:29:01.271Z,6.3
2019-03-27T00:30:03.311Z,6.3
2019-03-27T00:31:05.363Z,6.3
2019-03-27T00:32:07.677Z,6.3
2019-03-27T00:33:09.705Z,6.4
2019-03-27T00:34:11.755Z,6.3
2019-03-27T00:35:14.066Z,6.3
2019-03-27T00:36:16.115Z,6.3
2019-03-27T00:37:18.152Z,6.2
2019-03-27T00:38:20.174Z,6.3
2019-03-27T00:39:22.522Z,6.3
2019-03-27T00:40:24.554Z,6.3
2019-03-27T00:41:26.580Z,6.3
2019-03-27T00:42:28.615Z,6.3
2019-03-27T00:43:30.652Z,6.3
2019-03-27T00:44:32.685Z,6.3
2019-03-27T00:45:34.722Z,6.3
2019-03-27T00:46:36.756Z,6.3
2019-03-27T00:47:38.778Z,6.3
2019-03-27T00:48:41.247Z,6.3
2019-03-27T00:49:43.319Z,6.2
2019-03-27T00:50:45.396Z,6.3
2019-03-27T00:51:47.436Z,6.2
2019-03-27T00:52:49.480Z,6.2
2019-03-27T00:53:51.510Z,6.2
2019-03-27T00:54:53.556Z,6.2
2019-03-27T00:55:55.634Z,6.2
2019-03-27T00:56:57.663Z,6.2
2019-03-27T00:57:59.690Z,6.1
2019-03-27T00:59:01.807Z,6.1
2019-03-27T01:00:03.849Z,6.1
2019-03-27T01:01:05.884Z,6.1
2019-03-27T01:02:08.215Z,6.1
2019-03-27T01:03:10.242Z,6.1
2019-03-27T01:04:12.299Z,6.1
2019-03-27T01:05:14.331Z,6.1
2019-03-27T01:06:16.392Z,6.1
2019-03-27T01:07:18.413Z,6.1
2019-03-27T01:08:20.456Z,6.1
2019-03-27T01:09:22.491Z,6
2019-03-27T01:10:24.515Z,6
2019-03-27T01:11:26.836Z,6
2019-03-27T01:12:28.860Z,5.9
2019-03-27T01:13:30.892Z,5.9
2019-03-27T01:14:32.923Z,5.9
2019-03-27T01:15:41.245Z,5.9
2019-03-27T01:16:43.287Z,5.9
2019-03-27T01:17:45.708Z,5.9
2019-03-27T01:18:47.754Z,5.9
2019-03-27T01:19:49.778Z,5.9
2019-03-27T01:20:51.801Z,5.9
2019-03-27T01:21:54.215Z,5.9
2019-03-27T01:22:56.275Z,6
2019-03-27T01:23:58.570Z,6
2019-03-27T01:25:00.785Z,6
2019-03-27T01:26:03.097Z,6
2019-03-27T01:27:05.129Z,6.1
2019-03-27T01:28:07.172Z,6
2019-03-27T01:29:09.205Z,6
2019-03-27T01:30:11.237Z,6
2019-03-27T01:31:13.263Z,6
2019-03-27T01:32:15.321Z,6
2019-03-27T01:33:17.729Z,5.9
2019-03-27T01:34:19.760Z,5.9
2019-03-27T01:35:21.846Z,5.9
2019-03-27T01:36:24.568Z,5.9
2019-03-27T01:37:26.659Z,5.9
2019-03-27T01:38:30.024Z,5.9
2019-03-27T01:39:32.068Z,5.8
2019-03-27T01:40:34.084Z,5.8
2019-03-27T01:41:36.148Z,5.7
2019-03-27T01:42:38.472Z,5.7
2019-03-27T01:43:40.788Z,5.8
2019-03-27T01:44:42.837Z,5.8
2019-03-27T01:45:54.678Z,5.7
2019-03-27T01:46:57.102Z,5.7
2019-03-27T01:47:59.145Z,5.7
2019-03-27T01:49:01.180Z,5.6
2019-03-27T01:50:03.490Z,5.6
2019-03-27T01:51:05.523Z,5.6
2019-03-27T01:52:09.889Z,5.6
2019-03-27T01:53:11.919Z,5.7
2019-03-27T01:54:13.961Z,5.6
2019-03-27T01:55:16.075Z,5.6
2019-03-27T01:56:18.487Z,5.6
2019-03-27T01:57:20.542Z,5.7
2019-03-27T01:58:22.570Z,5.7
2019-03-27T01:59:24.603Z,5.7
2019-03-27T02:00:26.642Z,5.7
2019-03-27T02:01:28.677Z,5.7
2019-03-27T02:02:30.730Z,5.7
2019-03-27T02:03:32.764Z,5.7
2019-03-27T02:04:34.806Z,5.7
2019-03-27T02:05:36.823Z,5.7
2019-03-27T02:06:38.947Z,5.7
2019-03-27T02:07:40.973Z,5.7
2019-03-27T02:08:43.668Z,5.7
2019-03-27T02:09:45.716Z,5.7
2019-03-27T02:10:47.738Z,5.7
2019-03-27T02:11:50.168Z,5.7
2019-03-27T02:12:52.198Z,5.7
2019-03-27T02:13:54.637Z,5.7
2019-03-27T02:14:56.658Z,5.8
2019-03-27T02:16:08.665Z,5.8
2019-03-27T02:17:10.709Z,5.7
2019-03-27T02:18:13.119Z,5.8
2019-03-27T02:19:15.162Z,5.7
2019-03-27T02:20:17.481Z,5.8
2019-03-27T02:21:19.505Z,5.8
2019-03-27T02:22:21.853Z,5.8
2019-03-27T02:23:24.177Z,5.8
2019-03-27T02:24:26.487Z,5.8
2019-03-27T02:25:28.525Z,5.8
2019-03-27T02:26:30.557Z,5.8
2019-03-27T02:27:32.576Z,5.7
2019-03-27T02:28:34.620Z,5.7
2019-03-27T02:29:37.609Z,5.7
2019-03-27T02:30:40.038Z,5.8
2019-03-27T02:31:42.080Z,5.8
2019-03-27T02:32:44.516Z,5.7
2019-03-27T02:33:46.755Z,5.8
2019-03-27T02:34:48.795Z,5.8
2019-03-27T02:35:51.126Z,5.8
2019-03-27T02:36:53.745Z,5.8
2019-03-27T02:37:56.903Z,5.8
2019-03-27T02:38:59.238Z,5.8
2019-03-27T02:40:02.236Z,5.8
2019-03-27T02:41:04.279Z,5.8
2019-03-27T02:42:06.426Z,5.8
2019-03-27T02:43:08.480Z,5.8
2019-03-27T02:44:11.467Z,5.8
2019-03-27T02:45:13.858Z,5.9
2019-03-27T02:46:26.555Z,5.8
2019-03-27T02:47:29.195Z,5.8
2019-03-27T02:48:32.100Z,5.9
2019-03-27T02:49:35.203Z,5.9
2019-03-27T02:50:37.278Z,5.9
2019-03-27T02:51:39.308Z,5.8
2019-03-27T02:52:41.670Z,5.8
2019-03-27T02:53:43.792Z,5.8
2019-03-27T02:54:45.835Z,5.9
2019-03-27T02:55:47.944Z,5.9
2019-03-27T02:56:50.013Z,5.9
2019-03-27T02:57:52.334Z,5.9
2019-03-27T02:58:54.514Z,5.9
2019-03-27T02:59:56.845Z,5.9
2019-03-27T03:00:59.512Z,6
2019-03-27T03:02:02.248Z,6
2019-03-27T03:03:05.167Z,5.9
2019-03-27T03:04:07.749Z,5.9
2019-03-27T03:05:10.481Z,5.9
2019-03-27T03:06:12.825Z,5.9
2019-03-27T03:07:15.260Z,5.9
2019-03-27T03:08:17.594Z,6
2019-03-27T03:09:20.191Z,6
2019-03-27T03:10:22.527Z,6
2019-03-27T03:11:24.576Z,6
2019-03-27T03:12:27.526Z,6
2019-03-27T03:13:29.560Z,6
2019-03-27T03:14:31.607Z,6
2019-03-27T03:15:33.962Z,5.9
2019-03-27T03:16:44.664Z,5.9
2019-03-27T03:17:47.004Z,5.9
2019-03-27T03:18:49.499Z,5.9
2019-03-27T03:19:51.554Z,5.9
2019-03-27T03:20:53.979Z,5.9
2019-03-27T03:21:56.816Z,5.9
2019-03-27T03:22:59.260Z,5.9
2019-03-27T03:24:02.072Z,6
2019-03-27T03:25:04.533Z,6
2019-03-27T03:26:06.559Z,6
2019-03-27T03:27:08.604Z,6
2019-03-27T03:28:10.958Z,6
2019-03-27T03:29:13.289Z,6
2019-03-27T03:30:15.453Z,6
2019-03-27T03:31:18.126Z,6
2019-03-27T03:32:20.833Z,6
2019-03-27T03:33:23.247Z,6
2019-03-27T03:34:25.693Z,6
2019-03-27T03:35:28.210Z,6.1
2019-03-27T03:36:30.236Z,6
2019-03-27T03:37:32.323Z,6
2019-03-27T03:38:35.041Z,6
2019-03-27T03:39:37.901Z,6
2019-03-27T03:40:40.360Z,6
2019-03-27T03:41:42.436Z,6
2019-03-27T03:42:44.805Z,6
2019-03-27T03:43:47.545Z,6
2019-03-27T03:44:49.613Z,6
2019-03-27T03:45:52.267Z,6.1
2019-03-27T03:47:02.030Z,6.1
2019-03-27T03:48:04.098Z,6
2019-03-27T03:49:06.733Z,6
2019-03-27T03:50:10.024Z,6
2019-03-27T03:51:12.073Z,6.1
2019-03-27T03:52:14.421Z,6.1
2019-03-27T03:53:17.168Z,6.1
2019-03-27T03:54:19.186Z,6.1
2019-03-27T03:55:22.109Z,6.1
2019-03-27T03:56:24.452Z,6.1
2019-03-27T03:57:26.889Z,6
2019-03-27T03:58:29.528Z,6.1
2019-03-27T03:59:31.565Z,6.1
2019-03-27T04:00:33.921Z,6.2
2019-03-27T04:01:36.301Z,6.1
2019-03-27T04:02:38.735Z,6.1
2019-03-27T04:03:41.154Z,6.1
2019-03-27T04:04:43.185Z,6.1
2019-03-27T04:05:45.788Z,6.1
2019-03-27T04:06:48.430Z,6.1
2019-03-27T04:07:51.071Z,6.2
2019-03-27T04:08:53.132Z,6.2
2019-03-27T04:09:55.192Z,6.2
2019-03-27T04:10:57.545Z,6.2
2019-03-27T04:11:59.867Z,6.1
2019-03-27T04:13:01.950Z,6.1
2019-03-27T04:14:04.857Z,6.1
2019-03-27T04:15:07.570Z,6.2
2019-03-27T04:16:09.912Z,6.1
2019-03-27T04:17:19.668Z,6.2
2019-03-27T04:18:22.007Z,6.2
2019-03-27T04:19:24.317Z,6.2
2019-03-27T04:20:27.341Z,6.2
2019-03-27T04:21:29.669Z,6.2
2019-03-27T04:22:31.724Z,6.2
2019-03-27T04:23:33.758Z,6.2
2019-03-27T04:24:35.818Z,6.2
2019-03-27T04:26:11.807Z,6.3
2019-03-27T04:27:14.144Z,6.3
2019-03-27T04:28:16.795Z,6.2
2019-03-27T04:29:18.890Z,6.2
2019-03-27T04:30:21.516Z,6.2
2019-03-27T04:31:23.945Z,6.2
2019-03-27T04:32:26.038Z,6.2
2019-03-27T04:33:28.478Z,6.2
2019-03-27T04:34:30.530Z,6.2
2019-03-27T04:35:33.154Z,6.2
2019-03-27T04:36:35.467Z,6.2
2019-03-27T04:37:37.889Z,6.3
2019-03-27T04:38:40.620Z,6.3
2019-03-27T04:39:42.938Z,6.3
2019-03-27T04:40:44.980Z,6.3
2019-03-27T04:41:47.331Z,6.3
2019-03-27T04:42:49.366Z,6.2
2019-03-27T04:43:51.392Z,6.2
2019-03-27T04:44:53.442Z,6.2
2019-03-27T04:45:56.044Z,6.2
2019-03-27T04:46:58.839Z,6.2
2019-03-27T04:48:01.163Z,6.2
2019-03-27T04:49:09.059Z,6.2
2019-03-27T04:50:11.819Z,6.2
2019-03-27T04:51:13.853Z,6.2
2019-03-27T04:52:15.901Z,6.2
2019-03-27T04:53:17.921Z,6.2
2019-03-27T04:54:20.251Z,6.2
2019-03-27T04:55:22.276Z,6.1
2019-03-27T04:56:24.313Z,6.1
2019-03-27T04:57:26.724Z,6.2
2019-03-27T04:58:29.047Z,6.2
2019-03-27T04:59:31.087Z,6.2
2019-03-27T05:00:33.401Z,6.2
2019-03-27T05:01:35.455Z,6.1
2019-03-27T05:02:37.492Z,6.2
2019-03-27T05:03:40.097Z,6.1
2019-03-27T05:04:42.710Z,6.2
2019-03-27T05:05:45.052Z,6.2
2019-03-27T05:06:47.072Z,6.2
2019-03-27T05:07:49.110Z,6.1
2019-03-27T05:08:51.468Z,6.2
2019-03-27T05:09:53.892Z,6.2
2019-03-27T05:10:55.913Z,6.2
2019-03-27T05:11:58.339Z,6.2
2019-03-27T05:13:00.382Z,6.2
2019-03-27T05:14:02.416Z,6.2
2019-03-27T05:15:04.459Z,6.1
2019-03-27T05:16:06.569Z,6.2
2019-03-27T05:17:08.597Z,6.2
2019-03-27T05:18:10.694Z,6.2
2019-03-27T05:19:13.054Z,6.2
2019-03-27T05:20:15.385Z,6.2
2019-03-27T05:21:17.435Z,6.3
2019-03-27T05:22:19.461Z,6.3
2019-03-27T05:23:21.601Z,6.2
2019-03-27T05:24:23.637Z,6.2
2019-03-27T05:25:25.689Z,6.2
2019-03-27T05:26:27.713Z,6.2
2019-03-27T05:27:29.757Z,6.3
2019-03-27T05:28:31.782Z,6.3
2019-03-27T05:29:33.871Z,6.3
2019-03-27T05:30:35.924Z,6.3
2019-03-27T05:31:37.948Z,6.2
2019-03-27T05:32:40.290Z,6.2
2019-03-27T05:33:42.322Z,6.3
2019-03-27T05:34:44.705Z,6.3
2019-03-27T05:35:46.729Z,6.3
2019-03-27T05:36:49.041Z,6.3
2019-03-27T05:37:51.082Z,6.4
2019-03-27T05:38:53.170Z,6.4
2019-03-27T05:39:55.215Z,6.4
2019-03-27T05:40:57.256Z,6.4
2019-03-27T05:41:59.293Z,6.4
2019-03-27T05:43:02.427Z,6.4
2019-03-27T05:44:04.794Z,6.4
2019-03-27T05:45:07.219Z,6.4
2019-03-27T05:46:09.253Z,6.4
2019-03-27T05:47:11.297Z,6.4
2019-03-27T05:48:13.338Z,6.4
2019-03-27T05:49:15.378Z,6.4
2019-03-27T05:50:17.705Z,6.4
2019-03-27T05:51:19.855Z,6.4
2019-03-27T05:52:22.178Z,6.4
2019-03-27T05:53:24.202Z,6.5
2019-03-27T05:54:26.523Z,6.5
2019-03-27T05:55:28.599Z,6.5
2019-03-27T05:56:30.631Z,6.4
2019-03-27T05:57:32.668Z,6.5
2019-03-27T05:58:34.692Z,6.5
2019-03-27T05:59:36.746Z,6.5
2019-03-27T06:00:38.764Z,6.4
2019-03-27T06:01:40.797Z,6.5
2019-03-27T06:02:43.117Z,6.5
2019-03-27T06:03:45.428Z,6.5
2019-03-27T06:04:47.755Z,6.5
2019-03-27T06:05:49.783Z,6.5
2019-03-27T06:06:51.832Z,6.5
2019-03-27T06:07:53.855Z,6.6
2019-03-27T06:08:55.908Z,6.6
2019-03-27T06:09:57.940Z,6.6
2019-03-27T06:11:00.253Z,6.6
2019-03-27T06:12:02.317Z,6.7
2019-03-27T06:13:04.356Z,6.7
2019-03-27T06:14:06.396Z,6.7
2019-03-27T06:15:08.454Z,6.6
2019-03-27T06:16:10.775Z,6.6
2019-03-27T06:17:12.867Z,6.6
2019-03-27T06:18:14.927Z,6.6
2019-03-27T06:19:16.997Z,6.7
2019-03-27T06:20:19.063Z,6.7
2019-03-27T06:21:21.089Z,6.7
2019-03-27T06:22:23.692Z,6.7
2019-03-27T06:23:25.731Z,6.8
2019-03-27T06:24:27.812Z,6.8
2019-03-27T06:25:29.866Z,6.8
2019-03-27T06:26:31.907Z,6.8
2019-03-27T06:27:33.943Z,6.8
2019-03-27T06:28:35.995Z,6.8
2019-03-27T06:29:38.032Z,6.8
2019-03-27T06:30:40.064Z,6.8
2019-03-27T06:31:42.087Z,6.7
2019-03-27T06:32:44.157Z,6.8
2019-03-27T06:33:46.179Z,6.8
2019-03-27T06:34:48.212Z,6.8
2019-03-27T06:35:50.535Z,6.9
2019-03-27T06:36:53.114Z,7
2019-03-27T06:37:55.165Z,6.9
2019-03-27T06:38:57.193Z,7
2019-03-27T06:39:59.614Z,7
2019-03-27T06:41:01.678Z,7
2019-03-27T06:42:03.743Z,6.9
2019-03-27T06:43:05.780Z,6.9
2019-03-27T06:44:07.820Z,6.9
2019-03-27T06:45:09.881Z,7
2019-03-27T06:46:11.910Z,7
2019-03-27T06:47:13.956Z,7.1
2019-03-27T06:48:27.870Z,7.1
2019-03-27T06:49:30.205Z,7.1
2019-03-27T06:50:32.224Z,7.1
2019-03-27T06:51:41.562Z,7.2
2019-03-27T06:52:43.591Z,7.2
2019-03-27T06:53:45.912Z,7.2
2019-03-27T06:54:47.959Z,7.1
2019-03-27T06:55:49.993Z,7.2
2019-03-27T06:56:52.029Z,7.3
2019-03-27T06:57:54.735Z,7.2
2019-03-27T06:58:56.785Z,7.2
2019-03-27T06:59:58.816Z,7.2
2019-03-27T07:01:01.239Z,7.2
2019-03-27T07:02:03.563Z,7.2
2019-03-27T07:03:05.873Z,7.2
2019-03-27T07:04:12.023Z,7.3
2019-03-27T07:05:14.066Z,7.3
2019-03-27T07:06:16.396Z,7.2
2019-03-27T07:07:18.417Z,7.3
2019-03-27T07:08:20.460Z,7.3
2019-03-27T07:09:22.504Z,7.3
2019-03-27T07:10:24.536Z,7.3
2019-03-27T07:11:26.586Z,7.3
2019-03-27T07:12:28.617Z,7.3
2019-03-27T07:13:30.656Z,7.3
2019-03-27T07:14:32.675Z,7.4
2019-03-27T07:15:36.993Z,7.4
2019-03-27T07:16:39.108Z,7.5
2019-03-27T07:17:41.156Z,7.5
2019-03-27T07:18:43.199Z,7.6
2019-03-27T07:19:45.524Z,7.7
2019-03-27T07:20:47.559Z,7.8
2019-03-27T07:21:49.683Z,7.8
2019-03-27T07:22:51.726Z,7.8
2019-03-27T07:23:53.750Z,7.8
2019-03-27T07:24:55.784Z,7.7
2019-03-27T07:25:57.915Z,7.6
2019-03-27T07:26:59.943Z,7.6
2019-03-27T07:28:01.988Z,7.6
2019-03-27T07:29:04.028Z,7.6
2019-03-27T07:30:06.441Z,7.6
2019-03-27T07:31:08.779Z,7.6
2019-03-27T07:32:10.840Z,7.7
2019-03-27T07:33:12.911Z,7.7
2019-03-27T07:34:14.945Z,7.8
2019-03-27T07:35:17.361Z,7.8
2019-03-27T07:36:19.398Z,7.8
2019-03-27T07:37:21.438Z,7.8
2019-03-27T07:38:23.461Z,7.8
2019-03-27T07:39:25.511Z,7.8
2019-03-27T07:40:27.531Z,7.9
2019-03-27T07:41:29.567Z,7.8
2019-03-27T07:42:31.614Z,7.8
2019-03-27T07:43:33.723Z,7.9
2019-03-27T07:44:35.766Z,7.9
2019-03-27T07:45:37.812Z,7.9
2019-03-27T07:46:40.537Z,7.9
2019-03-27T07:47:42.578Z,7.9
2019-03-27T07:48:55.444Z,8
2019-03-27T07:49:57.601Z,8
2019-03-27T07:50:59.636Z,8
2019-03-27T07:52:01.683Z,8
2019-03-27T07:53:04.039Z,8.1
2019-03-27T07:54:06.088Z,8.1
2019-03-27T07:55:20.929Z,8.2
2019-03-27T07:56:23.244Z,8.2
2019-03-27T07:57:25.278Z,8.2
2019-03-27T07:58:27.373Z,8.2
2019-03-27T07:59:29.410Z,8.2
2019-03-27T08:00:31.460Z,8.2
2019-03-27T08:01:33.505Z,8.2
2019-03-27T08:02:35.539Z,8.2
2019-03-27T08:03:37.564Z,8.1
2019-03-27T08:04:40.007Z,8.2
2019-03-27T08:05:42.036Z,8.1
2019-03-27T08:06:44.091Z,8
2019-03-27T08:07:46.205Z,8
2019-03-27T08:08:48.241Z,7.9
2019-03-27T08:09:50.420Z,7.9
2019-03-27T08:10:52.455Z,7.9
2019-03-27T08:11:54.503Z,7.9
2019-03-27T08:12:56.803Z,7.9
2019-03-27T08:13:58.854Z,7.9
2019-03-27T08:15:01.055Z,8
2019-03-27T08:16:03.394Z,7.9
2019-03-27T08:17:05.445Z,7.9
2019-03-27T08:18:07.782Z,7.9
2019-03-27T08:19:10.120Z,7.8
2019-03-27T08:20:12.241Z,7.8
2019-03-27T08:21:14.683Z,7.8
2019-03-27T08:22:16.716Z,7.8
2019-03-27T08:23:18.840Z,7.8
2019-03-27T08:24:20.878Z,7.7
2019-03-27T08:25:22.917Z,7.7
2019-03-27T08:26:24.963Z,7.7
2019-03-27T08:27:27.023Z,7.9
2019-03-27T08:28:29.071Z,7.8
2019-03-27T08:29:31.489Z,7.8
2019-03-27T08:30:33.550Z,7.9
2019-03-27T08:31:35.962Z,7.9
2019-03-27T08:32:38.754Z,8
2019-03-27T08:33:41.176Z,8
2019-03-27T08:34:44.420Z,7.9
2019-03-27T08:35:46.452Z,8
2019-03-27T08:36:48.508Z,7.9
2019-03-27T08:37:50.565Z,7.9
2019-03-27T08:38:52.607Z,8
2019-03-27T08:39:55.309Z,8
2019-03-27T08:40:57.346Z,7.8
2019-03-27T08:41:59.398Z,7.9
2019-03-27T08:43:02.371Z,7.9
2019-03-27T08:44:04.415Z,7.8
2019-03-27T08:45:06.739Z,7.9
2019-03-27T08:46:08.789Z,7.9
2019-03-27T08:47:10.838Z,8
2019-03-27T08:48:12.925Z,8.1
2019-03-27T08:49:23.489Z,8.1
2019-03-27T08:50:25.550Z,8.1
2019-03-27T08:51:27.572Z,8.2
2019-03-27T08:52:29.611Z,8
2019-03-27T08:53:31.641Z,8
2019-03-27T08:54:33.697Z,7.9
2019-03-27T08:55:35.766Z,7.9
2019-03-27T08:56:37.825Z,7.9
2019-03-27T08:57:39.868Z,8
2019-03-27T08:58:41.901Z,8
2019-03-27T08:59:44.227Z,7.9
2019-03-27T09:00:46.275Z,7.9
2019-03-27T09:01:48.302Z,7.9
2019-03-27T09:02:50.339Z,8.1
2019-03-27T09:03:52.385Z,8.1
2019-03-27T09:04:54.419Z,8
2019-03-27T09:05:56.459Z,8
2019-03-27T09:06:58.495Z,8.1
2019-03-27T09:08:00.517Z,7.9
2019-03-27T09:09:02.557Z,7.9
2019-03-27T09:10:04.600Z,8
2019-03-27T09:11:06.617Z,7.9
2019-03-27T09:12:08.663Z,7.9
2019-03-27T09:13:10.701Z,7.9
2019-03-27T09:14:12.731Z,7.9
2019-03-27T09:15:14.788Z,7.9
2019-03-27T09:16:16.842Z,8
2019-03-27T09:17:19.168Z,7.9
2019-03-27T09:18:21.241Z,8.1
2019-03-27T09:19:37.269Z,8
2019-03-27T09:20:39.293Z,7.9
2019-03-27T09:21:41.336Z,7.9
2019-03-27T09:22:43.655Z,7.8
2019-03-27T09:23:47.016Z,7.9
2019-03-27T09:24:49.356Z,7.9
2019-03-27T09:25:51.678Z,8
2019-03-27T09:26:53.719Z,7.9
2019-03-27T09:27:55.751Z,7.9
2019-03-27T09:28:57.806Z,7.9
2019-03-27T09:29:59.844Z,8
2019-03-27T09:31:02.044Z,7.9
2019-03-27T09:32:04.070Z,7.9
2019-03-27T09:33:06.121Z,7.8
2019-03-27T09:34:08.163Z,7.9
2019-03-27T09:35:10.194Z,7.9
2019-03-27T09:36:13.172Z,8
2019-03-27T09:37:15.215Z,8
2019-03-27T09:38:17.252Z,8
2019-03-27T09:39:19.287Z,8
2019-03-27T09:40:21.334Z,8
2019-03-27T09:41:23.421Z,8.1
2019-03-27T09:42:25.476Z,8.1
2019-03-27T09:43:27.539Z,8
2019-03-27T09:44:29.558Z,8.1
2019-03-27T09:45:31.654Z,8.2
2019-03-27T09:46:33.979Z,8.2
2019-03-27T09:47:36.404Z,8.2
2019-03-27T09:48:38.449Z,8.2
2019-03-27T09:49:51.309Z,8.2
2019-03-27T09:50:53.657Z,8.3
2019-03-27T09:51:55.686Z,8.3
2019-03-27T09:52:57.743Z,8.3
2019-03-27T09:53:59.776Z,8.4
2019-03-27T09:55:01.837Z,8.4
2019-03-27T09:56:19.617Z,8.4
2019-03-27T09:57:21.742Z,8.5
2019-03-27T09:58:23.796Z,8.5
2019-03-27T09:59:26.504Z,8.5
2019-03-27T10:00:28.551Z,8.5
2019-03-27T10:01:30.959Z,8.5
2019-03-27T10:02:33.000Z,8.5
2019-03-27T10:03:35.126Z,8.5
2019-03-27T10:04:37.217Z,8.5
2019-03-27T10:05:39.260Z,8.6
2019-03-27T10:06:41.290Z,8.6
2019-03-27T10:07:43.328Z,8.6
2019-03-27T10:08:45.357Z,8.7
2019-03-27T10:09:50.984Z,8.6
2019-03-27T10:10:53.104Z,8.7
2019-03-27T10:11:55.424Z,8.7
2019-03-27T10:12:57.467Z,8.7
2019-03-27T10:13:59.898Z,8.8
2019-03-27T10:15:01.931Z,8.9
2019-03-27T10:16:03.986Z,8.9
2019-03-27T10:17:06.034Z,8.9
2019-03-27T10:18:08.043Z,8.9
2019-03-27T10:19:10.361Z,8.9
2019-03-27T10:20:14.790Z,8.9
2019-03-27T10:21:16.829Z,8.9
2019-03-27T10:22:18.899Z,9
2019-03-27T10:23:20.926Z,9
2019-03-27T10:24:22.963Z,9.2
2019-03-27T10:25:25.308Z,9.2
2019-03-27T10:26:27.363Z,9.1
2019-03-27T10:27:29.401Z,9.1
2019-03-27T10:28:31.452Z,9.2
2019-03-27T10:29:33.727Z,9.1
2019-03-27T10:30:35.756Z,9.1
2019-03-27T10:31:38.197Z,9
2019-03-27T10:32:40.313Z,9.1
2019-03-27T10:33:42.359Z,9
2019-03-27T10:34:44.704Z,9.1
2019-03-27T10:35:47.038Z,9.1
2019-03-27T10:36:49.653Z,9.1
2019-03-27T10:37:51.690Z,9.2
2019-03-27T10:38:53.751Z,9.3
2019-03-27T10:39:55.851Z,9.4
2019-03-27T10:40:58.209Z,9.4
2019-03-27T10:42:00.279Z,9.4
2019-03-27T10:43:02.316Z,9.4
2019-03-27T10:44:04.345Z,9.4
2019-03-27T10:45:06.385Z,9.4
2019-03-27T10:46:08.417Z,9.6
2019-03-27T10:47:10.835Z,9.5
2019-03-27T10:48:12.896Z,9.5
2019-03-27T10:49:14.928Z,9.5
2019-03-27T10:50:19.189Z,9.5
2019-03-27T10:51:21.246Z,9.5
2019-03-27T10:52:23.346Z,9.5
2019-03-27T10:53:25.387Z,9.5
2019-03-27T10:54:27.431Z,9.5
2019-03-27T10:55:29.459Z,9.7
2019-03-27T10:56:31.792Z,9.8
2019-03-27T10:57:33.858Z,9.6
2019-03-27T10:58:35.978Z,9.7
2019-03-27T10:59:38.297Z,9.7
2019-03-27T11:00:40.434Z,9.8
2019-03-27T11:01:42.872Z,9.9
2019-03-27T11:02:44.918Z,10
2019-03-27T11:03:47.064Z,10
2019-03-27T11:04:49.111Z,10.1
2019-03-27T11:05:51.170Z,10.1
2019-03-27T11:06:53.210Z,10
2019-03-27T11:07:55.279Z,9.9
2019-03-27T11:08:57.307Z,9.8
2019-03-27T11:09:59.728Z,9.8
2019-03-27T11:11:02.152Z,9.8
2019-03-27T11:12:04.640Z,9.8
2019-03-27T11:13:06.683Z,9.8
2019-03-27T11:14:09.000Z,9.9
2019-03-27T11:15:11.037Z,10
2019-03-27T11:16:13.096Z,9.9
2019-03-27T11:17:15.436Z,9.8
2019-03-27T11:18:17.772Z,9.8
2019-03-27T11:19:19.811Z,9.8
2019-03-27T11:20:33.000Z,9.8
2019-03-27T11:21:35.034Z,9.9
2019-03-27T11:22:37.133Z,9.9
2019-03-27T11:23:39.172Z,9.9
2019-03-27T11:24:41.247Z,9.9
2019-03-27T11:25:43.285Z,9.9
2019-03-27T11:26:45.326Z,10.1
2019-03-27T11:27:47.370Z,10.3
2019-03-27T11:28:49.402Z,10.4
2019-03-27T11:29:51.446Z,10.3
2019-03-27T11:30:53.496Z,10.3
2019-03-27T11:31:56.118Z,10.4
2019-03-27T11:32:58.137Z,10.3
2019-03-27T11:34:00.579Z,10.4
2019-03-27T11:35:02.898Z,10.4
2019-03-27T11:36:05.321Z,10.3
2019-03-27T11:37:07.682Z,10.5
2019-03-27T11:38:09.718Z,10.3
2019-03-27T11:39:11.776Z,10.4
2019-03-27T11:40:14.217Z,10.4
2019-03-27T11:41:16.295Z,10.5
2019-03-27T11:42:18.327Z,10.7
2019-03-27T11:43:20.747Z,10.9
2019-03-27T11:44:22.792Z,11.1
2019-03-27T11:45:24.830Z,11.3
2019-03-27T11:46:27.202Z,11.4
2019-03-27T11:47:29.626Z,11.4
2019-03-27T11:48:31.663Z,11.3
2019-03-27T11:49:34.103Z,11.1
2019-03-27T11:50:46.758Z,11.2
2019-03-27T11:51:49.078Z,11.2
2019-03-27T11:52:51.146Z,11.3
2019-03-27T11:53:53.474Z,11.3
2019-03-27T11:54:55.509Z,11.2
2019-03-27T11:55:57.557Z,11.1
2019-03-27T11:56:59.605Z,11
2019-03-27T11:58:01.620Z,10.9
2019-03-27T11:59:03.674Z,10.9
2019-03-27T12:00:05.719Z,11
2019-03-27T12:01:07.771Z,10.9
2019-03-27T12:02:09.825Z,10.9
2019-03-27T12:03:11.892Z,10.9
2019-03-27T12:04:13.928Z,11
2019-03-27T12:05:15.964Z,11.1
2019-03-27T12:06:18.330Z,11.1
2019-03-27T12:07:20.359Z,11.2
2019-03-27T12:08:22.410Z,11.1
2019-03-27T12:09:24.468Z,11
2019-03-27T12:10:26.886Z,11
2019-03-27T12:11:28.939Z,11.1
2019-03-27T12:12:30.971Z,11
2019-03-27T12:13:33.038Z,11.2
2019-03-27T12:14:35.444Z,11.1
2019-03-27T12:15:37.519Z,11
2019-03-27T12:16:39.643Z,10.8
2019-03-27T12:17:42.105Z,10.9
2019-03-27T12:18:44.441Z,10.8
2019-03-27T12:19:46.482Z,10.9
2019-03-27T12:21:00.702Z,10.7
2019-03-27T12:22:02.758Z,10.6
2019-03-27T12:23:04.804Z,10.5
2019-03-27T12:24:06.925Z,10.3
2019-03-27T12:25:08.977Z,10.1
2019-03-27T12:26:11.026Z,10.3
2019-03-27T12:27:13.112Z,10.3
2019-03-27T12:28:15.171Z,10.4
2019-03-27T12:29:19.308Z,10.5
2019-03-27T12:30:21.408Z,10.5
2019-03-27T12:31:23.469Z,10.6
2019-03-27T12:32:26.581Z,10.5
2019-03-27T12:33:28.646Z,10.4
2019-03-27T12:34:31.133Z,10.4
2019-03-27T12:35:33.154Z,10.6
2019-03-27T12:36:35.198Z,10.4
2019-03-27T12:37:37.620Z,10.5
2019-03-27T12:38:39.665Z,10.6
2019-03-27T12:39:42.267Z,10.7
2019-03-27T12:40:44.294Z,10.5
2019-03-27T12:41:46.354Z,10.4
2019-03-27T12:42:48.406Z,10.5
2019-03-27T12:43:50.822Z,10.4
2019-03-27T12:44:52.870Z,10.4
2019-03-27T12:45:54.904Z,10.2
2019-03-27T12:46:56.970Z,10.3
2019-03-27T12:47:58.989Z,10.3
2019-03-27T12:49:01.040Z,10.3
2019-03-27T12:50:03.080Z,10.4
2019-03-27T12:51:14.348Z,10.4
2019-03-27T12:52:16.456Z,10.4
2019-03-27T12:53:18.869Z,10.4
2019-03-27T12:54:20.916Z,10.5
2019-03-27T12:55:22.967Z,10.5
2019-03-27T12:56:25.018Z,10.5
2019-03-27T12:57:27.037Z,10.5
2019-03-27T12:58:29.078Z,10.6
2019-03-27T12:59:31.107Z,10.7
2019-03-27T13:00:33.424Z,10.6
2019-03-27T13:01:35.861Z,10.6
2019-03-27T13:02:37.994Z,10.6
2019-03-27T13:03:40.023Z,10.6
2019-03-27T13:04:42.088Z,10.8
2019-03-27T13:05:44.197Z,10.9
2019-03-27T13:06:46.246Z,10.8
2019-03-27T13:07:51.788Z,10.7
2019-03-27T13:08:53.826Z,10.7
2019-03-27T13:09:56.148Z,10.5
2019-03-27T13:10:58.199Z,10.3
2019-03-27T13:12:00.251Z,10.3
2019-03-27T13:13:02.279Z,10.2
2019-03-27T13:14:04.346Z,10.1
2019-03-27T13:15:06.792Z,10.1
2019-03-27T13:16:09.125Z,10.1
2019-03-27T13:17:11.180Z,10.1
2019-03-27T13:18:13.211Z,10.3
2019-03-27T13:19:15.265Z,10.4
2019-03-27T13:20:17.580Z,10.3
2019-03-27T13:21:28.348Z,10.2
2019-03-27T13:22:30.764Z,10.2
2019-03-27T13:23:33.088Z,10.2
2019-03-27T13:24:35.144Z,10.3
2019-03-27T13:25:37.178Z,10.3
2019-03-27T13:26:39.224Z,10.4
2019-03-27T13:27:41.261Z,10.3
2019-03-27T13:28:50.308Z,10.4
2019-03-27T13:29:52.347Z,10.4
2019-03-27T13:30:54.398Z,10.4
2019-03-27T13:31:56.993Z,10.4
2019-03-27T13:32:59.035Z,10.3
2019-03-27T13:34:01.087Z,10.4
2019-03-27T13:35:03.426Z,10.3
2019-03-27T13:36:05.474Z,10.4
2019-03-27T13:37:07.519Z,10.4
2019-03-27T13:38:09.841Z,10.4
2019-03-27T13:39:11.896Z,10.6
2019-03-27T13:40:14.505Z,10.6
2019-03-27T13:41:16.543Z,10.5
2019-03-27T13:42:18.595Z,10.5
2019-03-27T13:43:20.625Z,10.6
2019-03-27T13:44:38.566Z,10.7
2019-03-27T13:45:40.614Z,10.7
2019-03-27T13:46:42.857Z,10.6
2019-03-27T13:47:45.021Z,10.4
2019-03-27T13:48:47.065Z,10.4
2019-03-27T13:49:49.121Z,10.5
2019-03-27T13:50:51.148Z,10.6
2019-03-27T13:51:53.204Z,10.5
2019-03-27T13:52:55.320Z,10.5
2019-03-27T13:53:57.363Z,10.4
2019-03-27T13:54:59.388Z,10.4
2019-03-27T13:56:01.433Z,10.4
2019-03-27T13:57:03.488Z,10.4
2019-03-27T13:58:06.237Z,10.5
2019-03-27T13:59:08.556Z,10.5
2019-03-27T14:00:10.611Z,10.4
2019-03-27T14:01:14.098Z,10.3
2019-03-27T14:02:16.139Z,10.4
2019-03-27T14:03:18.457Z,10.2
2019-03-27T14:04:20.505Z,10.3
2019-03-27T14:05:22.544Z,10.4
2019-03-27T14:06:24.592Z,10.4
2019-03-27T14:07:26.640Z,10.4
2019-03-27T14:08:28.672Z,10.4
2019-03-27T14:09:30.721Z,10.3
2019-03-27T14:10:32.769Z,10.4
2019-03-27T14:11:34.791Z,10.4
2019-03-27T14:12:36.833Z,10.4
2019-03-27T14:13:38.934Z,10.5
2019-03-27T14:14:52.033Z,10.4
2019-03-27T14:15:54.074Z,10.5
2019-03-27T14:16:56.507Z,10.4
2019-03-27T14:17:58.551Z,10.4
2019-03-27T14:19:00.581Z,10.4
2019-03-27T14:20:02.983Z,10.4
2019-03-27T14:21:05.041Z,10.5
2019-03-27T14:22:07.087Z,10.5